Jackson, MN

23:32 CDT 18. Duben 2015 (GMT -0500)
Jackson Municipal | | Change Station
CLOSE
Current Station
Letiště
Location: Jackson,
Nadmořská výška: 1447 ft
Poblíž povětrnostní stanice

Výška 1447 ft 43.65 °N, 94.99 °W | Updated 19 minutes ago

Déšť
Déšť
55 °F
Pocit jako 55 °F
S
10
Vítr proměnlivý Vítr od JV

Dnes
Vysoké -- | Nízké -- °F
--% Možnost srážek
Včera
Vysoké -- | Nízké -- °F
Precip. -- inčů
6:32 AM 8:06 PM
Nový měsíc, 0% visible
Tlak 29.82 inčů
Viditelnost 5.0 mílí
Zataženo Zataženo 500 ft
Rosný bod 54 °F
Vlhkost 94%
Dešťové srážky 1.11 inčů
Sněhová pokrývka Není k dispozici
UV záření 0 ze 12
Pyl 5.00 ze 12
Kvalita ovzduší Není k dispozici
Flu Activity Local Activity
METAR KMJQ 190413Z AUTO 14009KT 5SM DZ OVC005 13/12 A2982 RMK AO2

More Conditions Fewer Conditions

Tlak 29.82 inčů
Viditelnost 5.0 mílí
Zataženo Zataženo 500 ft
Rosný bod 54 °F
Vlhkost 94%
Dešťové srážky 1.11 inčů
Sněhová pokrývka Není k dispozici
UV záření 0 ze 12
Pyl 5.00 ze 12
Kvalita ovzduší Není k dispozici
Flu Activity Local Activity
METAR KMJQ 190413Z AUTO 14009KT 5SM DZ OVC005 13/12 A2982 RMK AO2

More Conditions Fewer Conditions

10-Day Weather Forecast

Almanac

Astronomie

Apr. 18, 2015 Východ Západ
Skutečný čas
Občanský soumrak
Námořní soumrak
Astronomický soumrak
Měsíc
Délka denního světla
Délka dne
Tomorrow will be .
, % of the Moon is Illuminated

Dnešní extrémy

State Highs State Lows

Community

WunderPhotos

Upload Photos

1,814,723 snímků staženo!

WunderBlogs® & News

Nearby

Kvalita ovzduší

  Kvalita ovzduší Index kvality ovzduší Polutant
Not available.

Výška sněhu

Station Hloubka Nadmořská výška

Seizmická činnost

Město Distance Mag. Čas & datum
Minimální zobrazený rozsah je 2.5.

Pobřežní teplota vody

Lokalita Teplota

Stations

Poblíž povětrnostní stanice

Lokace stanice Tepl. Ochlazování větrem Rosný bod Vlhkost Vítr Precip. Výška Čas hlášení Typ